sensor_id;sensor_type;location;lat;lon;timestamp;pressure;altitude;pressure_sealevel;temperature;humidity
77161;BME280;66135;0.000;0.000;2023-02-02T00:01:19;102019.72;;;18.86;53.52
77161;BME280;66135;0.000;0.000;2023-02-02T00:03:44;102014.56;;;18.83;53.44
77161;BME280;66135;0.000;0.000;2023-02-02T00:06:10;102019.16;;;18.82;53.69
77161;BME280;66135;0.000;0.000;2023-02-02T00:08:39;102013.88;;;18.81;53.60
77161;BME280;66135;0.000;0.000;2023-02-02T00:11:04;102004.16;;;18.78;53.57
77161;BME280;66135;0.000;0.000;2023-02-02T00:13:30;102011.59;;;18.76;53.68
77161;BME280;66135;0.000;0.000;2023-02-02T00:15:56;102007.03;;;18.77;53.41
77161;BME280;66135;0.000;0.000;2023-02-02T00:18:21;102009.91;;;18.75;53.55
77161;BME280;66135;0.000;0.000;2023-02-02T00:20:47;102002.91;;;18.73;53.63
77161;BME280;66135;0.000;0.000;2023-02-02T00:23:16;102005.63;;;18.73;53.62
77161;BME280;66135;0.000;0.000;2023-02-02T00:25:42;102003.06;;;18.71;53.36
77161;BME280;66135;0.000;0.000;2023-02-02T00:28:07;102005.78;;;18.71;53.54
77161;BME280;66135;0.000;0.000;2023-02-02T00:30:33;101999.63;;;18.69;53.56
77161;BME280;66135;0.000;0.000;2023-02-02T00:32:58;102003.38;;;18.68;53.47
77161;BME280;66135;0.000;0.000;2023-02-02T00:35:23;102010.50;;;18.69;53.40
77161;BME280;66135;0.000;0.000;2023-02-02T00:37:49;102021.66;;;18.66;53.51
77161;BME280;66135;0.000;0.000;2023-02-02T00:40:14;102007.69;;;18.61;53.54
77161;BME280;66135;0.000;0.000;2023-02-02T00:42:39;102014.25;;;18.59;53.76
77161;BME280;66135;0.000;0.000;2023-02-02T00:45:05;102018.97;;;18.57;53.59
77161;BME280;66135;0.000;0.000;2023-02-02T00:47:40;102021.41;;;18.60;53.41
77161;BME280;66135;0.000;0.000;2023-02-02T00:50:05;102022.25;;;18.60;53.33
77161;BME280;66135;0.000;0.000;2023-02-02T00:52:31;102016.81;;;18.60;53.41
77161;BME280;66135;0.000;0.000;2023-02-02T00:54:56;102020.56;;;18.59;53.51
77161;BME280;66135;0.000;0.000;2023-02-02T00:57:22;102023.41;;;18.58;53.48
77161;BME280;66135;0.000;0.000;2023-02-02T00:59:47;102026.13;;;18.58;53.39
77161;BME280;66135;0.000;0.000;2023-02-02T01:02:13;102028.84;;;18.58;53.38
77161;BME280;66135;0.000;0.000;2023-02-02T01:04:38;102027.13;;;18.57;53.58
77161;BME280;66135;0.000;0.000;2023-02-02T01:07:04;102022.88;;;18.54;53.42
77161;BME280;66135;0.000;0.000;2023-02-02T01:09:30;102017.44;;;18.54;53.37
77161;BME280;66135;0.000;0.000;2023-02-02T01:11:55;102027.59;;;18.52;53.22
77161;BME280;66135;0.000;0.000;2023-02-02T01:14:20;102024.88;;;18.52;53.22
77161;BME280;66135;0.000;0.000;2023-02-02T01:16:46;102024.00;;;18.52;53.29
77161;BME280;66135;0.000;0.000;2023-02-02T01:19:13;102018.72;;;18.50;53.25
77161;BME280;66135;0.000;0.000;2023-02-02T01:21:38;102026.31;;;18.47;53.35
77161;BME280;66135;0.000;0.000;2023-02-02T01:24:04;102023.91;;;18.44;53.29
77161;BME280;66135;0.000;0.000;2023-02-02T01:26:30;102040.34;;;18.42;53.40
77161;BME280;66135;0.000;0.000;2023-02-02T01:28:55;102026.91;;;18.41;53.42
77161;BME280;66135;0.000;0.000;2023-02-02T01:31:21;102018.91;;;18.39;53.48
77161;BME280;66135;0.000;0.000;2023-02-02T01:33:47;102028.03;;;18.38;53.48
77161;BME280;66135;0.000;0.000;2023-02-02T01:36:16;102024.03;;;18.33;53.49
77161;BME280;66135;0.000;0.000;2023-02-02T01:38:41;102038.47;;;18.33;53.50
77161;BME280;66135;0.000;0.000;2023-02-02T01:41:11;102031.34;;;18.32;53.38
77161;BME280;66135;0.000;0.000;2023-02-02T01:46:10;102032.34;;;18.31;53.20
77161;BME280;66135;0.000;0.000;2023-02-02T01:48:36;102029.63;;;18.31;53.67
77161;BME280;66135;0.000;0.000;2023-02-02T01:51:05;102032.63;;;18.28;53.64
77161;BME280;66135;0.000;0.000;2023-02-02T01:53:32;102032.78;;;18.27;53.50
77161;BME280;66135;0.000;0.000;2023-02-02T01:55:58;102022.09;;;18.25;53.47
77161;BME280;66135;0.000;0.000;2023-02-02T01:58:29;102036.47;;;18.26;53.45
77161;BME280;66135;0.000;0.000;2023-02-02T02:00:55;102029.50;;;18.23;53.53
77161;BME280;66135;0.000;0.000;2023-02-02T02:03:24;102028.66;;;18.23;53.30
77161;BME280;66135;0.000;0.000;2023-02-02T02:05:51;102035.91;;;18.22;53.48
77161;BME280;66135;0.000;0.000;2023-02-02T02:08:20;102023.38;;;18.21;53.62
77161;BME280;66135;0.000;0.000;2023-02-02T02:10:46;102026.25;;;18.20;53.42
77161;BME280;66135;0.000;0.000;2023-02-02T02:13:12;102021.66;;;18.20;53.63
77161;BME280;66135;0.000;0.000;2023-02-02T02:15:57;102031.81;;;18.18;53.75
77161;BME280;66135;0.000;0.000;2023-02-02T02:21:55;102022.25;;;18.14;53.59
77161;BME280;66135;0.000;0.000;2023-02-02T02:31:07;102028.97;;;18.10;53.56
77161;BME280;66135;0.000;0.000;2023-02-02T02:36:18;102033.56;;;18.10;53.81
77161;BME280;66135;0.000;0.000;2023-02-02T02:39:01;102031.09;;;18.07;53.64
77161;BME280;66135;0.000;0.000;2023-02-02T02:41:32;102035.69;;;18.06;53.83
77161;BME280;66135;0.000;0.000;2023-02-02T02:44:03;102034.97;;;18.04;53.69
77161;BME280;66135;0.000;0.000;2023-02-02T02:46:30;102034.28;;;18.02;53.71
77161;BME280;66135;0.000;0.000;2023-02-02T02:48:58;102036.97;;;18.02;53.64
77161;BME280;66135;0.000;0.000;2023-02-02T02:51:38;102038.81;;;18.02;53.77
77161;BME280;66135;0.000;0.000;2023-02-02T02:54:05;102034.41;;;18.01;53.79
77161;BME280;66135;0.000;0.000;2023-02-02T02:59:07;102033.00;;;17.96;53.75
77161;BME280;66135;0.000;0.000;2023-02-02T03:01:45;102037.53;;;17.96;53.76
77161;BME280;66135;0.000;0.000;2023-02-02T03:04:24;102043.13;;;17.94;53.83
77161;BME280;66135;0.000;0.000;2023-02-02T03:10:08;102027.00;;;17.93;53.96
77161;BME280;66135;0.000;0.000;2023-02-02T03:12:55;102029.84;;;17.91;53.72
77161;BME280;66135;0.000;0.000;2023-02-02T03:15:21;102031.84;;;17.89;53.97
77161;BME280;66135;0.000;0.000;2023-02-02T03:17:49;102032.97;;;17.87;53.89
77161;BME280;66135;0.000;0.000;2023-02-02T03:20:16;102026.72;;;17.86;53.81
77161;BME280;66135;0.000;0.000;2023-02-02T03:22:42;102031.28;;;17.86;54.23
77161;BME280;66135;0.000;0.000;2023-02-02T03:25:07;102029.75;;;17.83;53.93
77161;BME280;66135;0.000;0.000;2023-02-02T03:27:36;102025.88;;;17.86;53.74
77161;BME280;66135;0.000;0.000;2023-02-02T03:30:03;102035.00;;;17.85;53.60
77161;BME280;66135;0.000;0.000;2023-02-02T03:32:28;102037.00;;;17.83;54.05
77161;BME280;66135;0.000;0.000;2023-02-02T03:34:54;102033.44;;;17.82;53.77
77161;BME280;66135;0.000;0.000;2023-02-02T03:37:19;102029.16;;;17.80;53.86
77161;BME280;66135;0.000;0.000;2023-02-02T03:39:45;102027.44;;;17.79;54.10
77161;BME280;66135;0.000;0.000;2023-02-02T03:42:10;102022.03;;;17.79;54.11
77161;BME280;66135;0.000;0.000;2023-02-02T03:44:35;102026.56;;;17.78;53.92
77161;BME280;66135;0.000;0.000;2023-02-02T03:47:01;102024.88;;;17.77;53.90
77161;BME280;66135;0.000;0.000;2023-02-02T03:49:26;102020.59;;;17.75;53.95
77161;BME280;66135;0.000;0.000;2023-02-02T03:51:51;102039.56;;;17.75;54.13
77161;BME280;66135;0.000;0.000;2023-02-02T03:54:17;102037.00;;;17.73;54.17
77161;BME280;66135;0.000;0.000;2023-02-02T03:56:42;102035.16;;;17.74;54.23
77161;BME280;66135;0.000;0.000;2023-02-02T03:59:08;102041.69;;;17.71;54.26
77161;BME280;66135;0.000;0.000;2023-02-02T04:01:33;102039.13;;;17.70;53.97
77161;BME280;66135;0.000;0.000;2023-02-02T04:03:58;102058.09;;;17.70;54.05
77161;BME280;66135;0.000;0.000;2023-02-02T04:06:24;102052.69;;;17.70;54.04
77161;BME280;66135;0.000;0.000;2023-02-02T04:08:50;102064.53;;;17.69;54.17
77161;BME280;66135;0.000;0.000;2023-02-02T04:11:16;102043.00;;;17.67;54.13
77161;BME280;66135;0.000;0.000;2023-02-02T04:13:42;102052.13;;;17.66;54.45
77161;BME280;66135;0.000;0.000;2023-02-02T04:16:08;102061.97;;;17.67;54.15
77161;BME280;66135;0.000;0.000;2023-02-02T04:18:34;102055.84;;;17.65;54.24
77161;BME280;66135;0.000;0.000;2023-02-02T04:21:02;102042.44;;;17.64;54.24
77161;BME280;66135;0.000;0.000;2023-02-02T04:23:27;102046.28;;;17.61;54.33
77161;BME280;66135;0.000;0.000;2023-02-02T04:25:53;102052.56;;;17.62;54.30
77161;BME280;66135;0.000;0.000;2023-02-02T04:28:19;102059.97;;;17.60;54.32
77161;BME280;66135;0.000;0.000;2023-02-02T04:30:44;102061.66;;;17.61;54.30
77161;BME280;66135;0.000;0.000;2023-02-02T04:33:10;102066.41;;;17.59;54.21
77161;BME280;66135;0.000;0.000;2023-02-02T04:35:35;102062.97;;;17.57;54.31
77161;BME280;66135;0.000;0.000;2023-02-02T04:38:01;102071.09;;;17.57;54.37
77161;BME280;66135;0.000;0.000;2023-02-02T04:40:26;102074.63;;;17.57;54.04
77161;BME280;66135;0.000;0.000;2023-02-02T04:42:52;102072.06;;;17.56;54.57
77161;BME280;66135;0.000;0.000;2023-02-02T04:45:17;102072.22;;;17.54;54.46
77161;BME280;66135;0.000;0.000;2023-02-02T04:47:42;102077.78;;;17.53;54.41
77161;BME280;66135;0.000;0.000;2023-02-02T04:50:09;102070.53;;;17.53;54.37
77161;BME280;66135;0.000;0.000;2023-02-02T04:52:34;102067.97;;;17.52;54.51
77161;BME280;66135;0.000;0.000;2023-02-02T04:55:00;102067.97;;;17.52;54.32
77161;BME280;66135;0.000;0.000;2023-02-02T04:57:25;102073.53;;;17.50;54.53
77161;BME280;66135;0.000;0.000;2023-02-02T04:59:51;102072.66;;;17.50;54.39
77161;BME280;66135;0.000;0.000;2023-02-02T05:02:16;102061.97;;;17.48;54.38
77161;BME280;66135;0.000;0.000;2023-02-02T05:04:42;102067.38;;;17.48;54.46
77161;BME280;66135;0.000;0.000;2023-02-02T05:07:07;102061.09;;;17.48;54.46
77161;BME280;66135;0.000;0.000;2023-02-02T05:09:32;102066.66;;;17.46;54.61
77161;BME280;66135;0.000;0.000;2023-02-02T05:11:58;102050.66;;;17.43;54.47
77161;BME280;66135;0.000;0.000;2023-02-02T05:14:23;102045.25;;;17.43;54.62
77161;BME280;66135;0.000;0.000;2023-02-02T05:16:49;102067.91;;;17.42;54.73
77161;BME280;66135;0.000;0.000;2023-02-02T05:19:14;102073.31;;;17.42;54.65
77161;BME280;66135;0.000;0.000;2023-02-02T05:21:42;102064.31;;;17.42;54.53
77161;BME280;66135;0.000;0.000;2023-02-02T05:24:09;102077.19;;;17.40;54.08
77161;BME280;66135;0.000;0.000;2023-02-02T05:26:34;102080.88;;;17.39;54.11
77161;BME280;66135;0.000;0.000;2023-02-02T05:29:00;102085.31;;;17.40;54.00
77161;BME280;66135;0.000;0.000;2023-02-02T05:31:25;102082.84;;;17.37;54.03
77161;BME280;66135;0.000;0.000;2023-02-02T05:33:51;102087.44;;;17.36;53.92
77161;BME280;66135;0.000;0.000;2023-02-02T05:36:17;102088.72;;;17.32;54.08
77161;BME280;66135;0.000;0.000;2023-02-02T05:38:42;102078.03;;;17.31;54.02
77161;BME280;66135;0.000;0.000;2023-02-02T05:41:07;102086.97;;;17.31;54.01
77161;BME280;66135;0.000;0.000;2023-02-02T05:43:33;102089.69;;;17.31;53.83
77161;BME280;66135;0.000;0.000;2023-02-02T05:45:59;102089.69;;;17.31;54.24
77161;BME280;66135;0.000;0.000;2023-02-02T05:48:25;102087.97;;;17.30;54.11
77161;BME280;66135;0.000;0.000;2023-02-02T05:51:14;102076.56;;;17.27;53.96
77161;BME280;66135;0.000;0.000;2023-02-02T05:53:41;102089.00;;;17.29;54.09
77161;BME280;66135;0.000;0.000;2023-02-02T05:56:09;102088.13;;;17.29;54.07
77161;BME280;66135;0.000;0.000;2023-02-02T05:58:34;102090.13;;;17.27;54.06
77161;BME280;66135;0.000;0.000;2023-02-02T06:00:59;102090.97;;;17.27;54.27
77161;BME280;66135;0.000;0.000;2023-02-02T06:03:25;102082.84;;;17.27;54.07
77161;BME280;66135;0.000;0.000;2023-02-02T06:05:50;102094.53;;;17.28;54.26
77161;BME280;66135;0.000;0.000;2023-02-02T06:08:15;102091.13;;;17.26;54.30
77161;BME280;66135;0.000;0.000;2023-02-02T06:10:41;102100.94;;;17.27;54.36
77161;BME280;66135;0.000;0.000;2023-02-02T06:13:07;102100.09;;;17.26;54.25
77161;BME280;66135;0.000;0.000;2023-02-02T06:15:32;102102.78;;;17.26;54.27
77161;BME280;66135;0.000;0.000;2023-02-02T06:17:58;102105.78;;;17.23;54.43
77161;BME280;66135;0.000;0.000;2023-02-02T06:20:24;102101.97;;;17.26;54.00
77161;BME280;66135;0.000;0.000;2023-02-02T06:22:50;102092.38;;;17.22;54.32
77161;BME280;66135;0.000;0.000;2023-02-02T06:25:16;102086.81;;;17.23;54.50
77161;BME280;66135;0.000;0.000;2023-02-02T06:27:41;102102.22;;;17.23;54.14
77161;BME280;66135;0.000;0.000;2023-02-02T06:30:09;102108.50;;;17.23;54.33
77161;BME280;66135;0.000;0.000;2023-02-02T06:32:34;102102.09;;;17.24;54.20
77161;BME280;66135;0.000;0.000;2023-02-02T06:34:59;102103.06;;;17.23;54.25
77161;BME280;66135;0.000;0.000;2023-02-02T06:37:25;102103.38;;;17.20;54.37
77161;BME280;66135;0.000;0.000;2023-02-02T06:39:50;102109.66;;;17.21;54.37
77161;BME280;66135;0.000;0.000;2023-02-02T06:42:16;102109.66;;;17.21;54.44
77161;BME280;66135;0.000;0.000;2023-02-02T06:44:41;102108.63;;;17.22;54.59
77161;BME280;66135;0.000;0.000;2023-02-02T06:47:06;102106.78;;;17.22;54.57
77161;BME280;66135;0.000;0.000;2023-02-02T06:49:32;102106.06;;;17.20;54.58
77161;BME280;66135;0.000;0.000;2023-02-02T06:51:57;102107.19;;;17.18;54.70
77161;BME280;66135;0.000;0.000;2023-02-02T06:54:23;102111.78;;;17.17;54.74
77161;BME280;66135;0.000;0.000;2023-02-02T06:56:48;102117.88;;;17.19;54.68
77161;BME280;66135;0.000;0.000;2023-02-02T06:59:13;102125.16;;;17.19;54.68
77161;BME280;66135;0.000;0.000;2023-02-02T07:01:39;102127.00;;;17.18;55.14
77161;BME280;66135;0.000;0.000;2023-02-02T07:04:04;102136.97;;;17.18;55.26
77161;BME280;66135;0.000;0.000;2023-02-02T07:06:30;102134.41;;;17.16;55.30
77161;BME280;66135;0.000;0.000;2023-02-02T07:08:55;102130.84;;;17.16;55.29
77161;BME280;66135;0.000;0.000;2023-02-02T07:11:21;102136.13;;;17.17;55.41
77161;BME280;66135;0.000;0.000;2023-02-02T07:13:48;102137.84;;;17.18;55.34
77161;BME280;66135;0.000;0.000;2023-02-02T07:16:15;102139.69;;;17.18;55.65
77161;BME280;66135;0.000;0.000;2023-02-02T07:18:41;102135.28;;;17.17;55.51
77161;BME280;66135;0.000;0.000;2023-02-02T07:21:08;;;;17.17;
77161;BME280;66135;0.000;0.000;2023-02-02T07:23:39;102145.97;;;17.18;55.28
77161;BME280;66135;0.000;0.000;2023-02-02T07:26:07;102145.81;;;17.20;55.27
77161;BME280;66135;0.000;0.000;2023-02-02T07:28:33;102137.84;;;17.18;55.21
77161;BME280;66135;0.000;0.000;2023-02-02T07:30:59;102140.25;;;17.21;55.73
77161;BME280;66135;0.000;0.000;2023-02-02T07:33:24;102138.72;;;17.19;55.63
77161;BME280;66135;0.000;0.000;2023-02-02T07:35:50;102133.44;;;17.17;55.65
77161;BME280;66135;0.000;0.000;2023-02-02T07:38:16;102137.97;;;17.17;55.83
77161;BME280;66135;0.000;0.000;2023-02-02T07:40:42;102146.25;;;17.15;56.23
77161;BME280;66135;0.000;0.000;2023-02-02T07:43:08;102140.84;;;17.15;56.37
77161;BME280;66135;0.000;0.000;2023-02-02T07:45:33;102147.09;;;17.16;56.37
77161;BME280;66135;0.000;0.000;2023-02-02T07:48:00;102151.81;;;17.14;56.12
77161;BME280;66135;0.000;0.000;2023-02-02T07:50:27;102151.81;;;17.14;56.19
77161;BME280;66135;0.000;0.000;2023-02-02T07:52:52;102146.50;;;17.12;56.18
77161;BME280;66135;0.000;0.000;2023-02-02T07:55:18;102153.78;;;17.12;56.29
77161;BME280;66135;0.000;0.000;2023-02-02T07:57:44;102153.94;;;17.10;56.52
77161;BME280;66135;0.000;0.000;2023-02-02T08:00:10;102161.19;;;17.10;56.52
77161;BME280;66135;0.000;0.000;2023-02-02T08:02:36;102165.72;;;17.09;56.50
77161;BME280;66135;0.000;0.000;2023-02-02T08:05:01;102164.75;;;17.10;56.32
77161;BME280;66135;0.000;0.000;2023-02-02T08:07:26;102167.56;;;17.09;56.39
77161;BME280;66135;0.000;0.000;2023-02-02T08:09:52;102174.72;;;17.10;56.74
77161;BME280;66135;0.000;0.000;2023-02-02T08:12:18;102176.28;;;17.12;56.93
77161;BME280;66135;0.000;0.000;2023-02-02T08:14:47;102177.00;;;17.14;56.94
77161;BME280;66135;0.000;0.000;2023-02-02T08:17:13;102186.13;;;17.13;56.92
77161;BME280;66135;0.000;0.000;2023-02-02T08:19:38;102178.16;;;17.12;57.28
77161;BME280;66135;0.000;0.000;2023-02-02T08:22:04;102174.44;;;17.13;57.49
77161;BME280;66135;0.000;0.000;2023-02-02T08:24:29;102178.16;;;17.12;57.12
77161;BME280;66135;0.000;0.000;2023-02-02T08:26:55;102184.28;;;17.14;57.13
77161;BME280;66135;0.000;0.000;2023-02-02T08:29:20;102192.41;;;17.14;57.35
77161;BME280;66135;0.000;0.000;2023-02-02T08:31:46;102195.13;;;17.14;57.30
77161;BME280;66135;0.000;0.000;2023-02-02T08:34:12;102193.13;;;17.16;57.47
77161;BME280;66135;0.000;0.000;2023-02-02T08:36:38;102192.41;;;17.14;57.33
77161;BME280;66135;0.000;0.000;2023-02-02T08:39:06;102198.66;;;17.14;57.09
77161;BME280;66135;0.000;0.000;2023-02-02T08:41:33;102193.53;;;17.11;57.07
77161;BME280;66135;0.000;0.000;2023-02-02T08:44:04;102196.09;;;17.13;57.32
77161;BME280;66135;0.000;0.000;2023-02-02T08:46:30;102203.25;;;17.14;57.40
77161;BME280;66135;0.000;0.000;2023-02-02T08:48:55;102204.94;;;17.15;57.51
77161;BME280;66135;0.000;0.000;2023-02-02T08:51:20;102212.22;;;17.14;57.39
77161;BME280;66135;0.000;0.000;2023-02-02T08:53:46;102216.91;;;17.12;57.59
77161;BME280;66135;0.000;0.000;2023-02-02T08:56:17;102229.59;;;17.12;57.57
77161;BME280;66135;0.000;0.000;2023-02-02T08:58:55;102234.28;;;17.10;57.86
77161;BME280;66135;0.000;0.000;2023-02-02T09:03:48;102248.78;;;17.09;57.56
77161;BME280;66135;0.000;0.000;2023-02-02T09:06:15;102246.09;;;17.09;57.59
77161;BME280;66135;0.000;0.000;2023-02-02T09:08:42;102247.69;;;17.11;57.61
77161;BME280;66135;0.000;0.000;2023-02-02T09:11:11;102252.00;;;17.14;57.90
77161;BME280;66135;0.000;0.000;2023-02-02T09:13:38;102255.38;;;17.16;57.74
77161;BME280;66135;0.000;0.000;2023-02-02T09:16:05;102253.56;;;17.16;57.31
77161;BME280;66135;0.000;0.000;2023-02-02T09:18:31;102259.97;;;17.15;57.66
77161;BME280;66135;0.000;0.000;2023-02-02T09:21:02;102269.94;;;17.15;57.77
77161;BME280;66135;0.000;0.000;2023-02-02T09:23:29;102268.09;;;17.15;57.90
77161;BME280;66135;0.000;0.000;2023-02-02T09:25:55;102273.38;;;17.17;57.56
77161;BME280;66135;0.000;0.000;2023-02-02T09:28:20;102269.22;;;17.13;58.00
77161;BME280;66135;0.000;0.000;2023-02-02T09:30:46;102265.53;;;17.14;57.78
77161;BME280;66135;0.000;0.000;2023-02-02T09:33:11;102271.78;;;17.14;57.94
77161;BME280;66135;0.000;0.000;2023-02-02T09:35:37;102272.91;;;17.12;57.73
77161;BME280;66135;0.000;0.000;2023-02-02T09:38:02;102281.19;;;17.10;57.90
77161;BME280;66135;0.000;0.000;2023-02-02T09:40:30;102286.59;;;17.10;58.00
77161;BME280;66135;0.000;0.000;2023-02-02T09:46:02;102295.09;;;17.06;57.77
77161;BME280;66135;0.000;0.000;2023-02-02T09:48:45;102302.84;;;17.10;57.72
77161;BME280;66135;0.000;0.000;2023-02-02T09:51:18;102306.25;;;17.12;58.25
77161;BME280;66135;0.000;0.000;2023-02-02T09:53:58;102304.53;;;17.11;58.10
77161;BME280;66135;0.000;0.000;2023-02-02T09:56:42;102312.53;;;17.13;58.40
77161;BME280;66135;0.000;0.000;2023-02-02T09:59:16;102313.41;;;17.13;58.07
77161;BME280;66135;0.000;0.000;2023-02-02T10:01:42;102318.09;;;17.11;58.01
77161;BME280;66135;0.000;0.000;2023-02-02T10:06:42;102337.91;;;17.12;57.94
77161;BME280;66135;0.000;0.000;2023-02-02T10:12:17;102338.88;;;17.11;58.01
77161;BME280;66135;0.000;0.000;2023-02-02T10:14:54;102336.31;;;17.09;58.43
77161;BME280;66135;0.000;0.000;2023-02-02T10:17:40;102330.75;;;17.11;58.24
77161;BME280;66135;0.000;0.000;2023-02-02T10:20:32;102331.03;;;17.08;58.38
77161;BME280;66135;0.000;0.000;2023-02-02T10:23:16;102327.22;;;17.10;58.16
77161;BME280;66135;0.000;0.000;2023-02-02T10:25:50;102318.22;;;17.10;58.46
77161;BME280;66135;0.000;0.000;2023-02-02T10:28:19;102323.63;;;17.10;58.01
77161;BME280;66135;0.000;0.000;2023-02-02T10:30:56;102318.22;;;17.10;58.25
77161;BME280;66135;0.000;0.000;2023-02-02T10:33:39;102323.03;;;17.06;58.07
77161;BME280;66135;0.000;0.000;2023-02-02T10:42:09;102326.34;;;17.10;58.72
77161;BME280;66135;0.000;0.000;2023-02-02T10:44:47;102332.50;;;17.12;58.51
77161;BME280;66135;0.000;0.000;2023-02-02T10:47:21;102332.63;;;17.10;58.64
77161;BME280;66135;0.000;0.000;2023-02-02T10:49:54;102323.50;;;17.11;58.85
77161;BME280;66135;0.000;0.000;2023-02-02T10:52:33;102321.91;;;17.09;59.02
77161;BME280;66135;0.000;0.000;2023-02-02T10:55:05;102337.31;;;17.08;59.59
77161;BME280;66135;0.000;0.000;2023-02-02T10:58:11;102338.69;;;17.03;59.83
77161;BME280;66135;0.000;0.000;2023-02-02T11:03:11;102346.94;;;17.01;59.05
77161;BME280;66135;0.000;0.000;2023-02-02T11:05:37;102359.47;;;17.02;58.96
77161;BME280;66135;0.000;0.000;2023-02-02T11:08:28;102352.81;;;17.06;58.93
77161;BME280;66135;0.000;0.000;2023-02-02T11:10:54;102349.25;;;17.06;59.05
77161;BME280;66135;0.000;0.000;2023-02-02T11:13:34;102350.25;;;17.05;59.19
77161;BME280;66135;0.000;0.000;2023-02-02T11:18:41;102347.53;;;17.05;59.45
77161;BME280;66135;0.000;0.000;2023-02-02T11:21:26;102351.09;;;17.05;59.32
77161;BME280;66135;0.000;0.000;2023-02-02T11:23:54;102347.69;;;17.03;59.37
77161;BME280;66135;0.000;0.000;2023-02-02T11:26:23;102353.94;;;17.04;59.04
77161;BME280;66135;0.000;0.000;2023-02-02T11:28:51;102345.94;;;17.02;59.15
77161;BME280;66135;0.000;0.000;2023-02-02T11:31:31;102339.56;;;17.03;59.65
77161;BME280;66135;0.000;0.000;2023-02-02T11:34:30;102337.56;;;17.05;59.69
77161;BME280;66135;0.000;0.000;2023-02-02T11:39:25;102346.81;;;17.03;59.67
77161;BME280;66135;0.000;0.000;2023-02-02T11:42:05;102344.09;;;17.03;59.39
77161;BME280;66135;0.000;0.000;2023-02-02T11:44:32;102347.09;;;17.00;59.57
77161;BME280;66135;0.000;0.000;2023-02-02T11:47:01;102339.78;;;17.00;59.39
77161;BME280;66135;0.000;0.000;2023-02-02T11:49:27;102343.38;;;17.01;59.62
77161;BME280;66135;0.000;0.000;2023-02-02T11:51:58;102331.69;;;17.00;59.50
77161;BME280;66135;0.000;0.000;2023-02-02T11:54:28;102338.09;;;16.99;59.21
77161;BME280;66135;0.000;0.000;2023-02-02T11:56:59;102329.25;;;16.97;59.47
77161;BME280;66135;0.000;0.000;2023-02-02T11:59:35;102323.09;;;16.95;58.87
77161;BME280;66135;0.000;0.000;2023-02-02T12:07:34;102333.19;;;16.93;58.90
77161;BME280;66135;0.000;0.000;2023-02-02T12:10:10;102334.19;;;16.92;58.97
77161;BME280;66135;0.000;0.000;2023-02-02T12:12:59;102327.78;;;16.93;58.86
77161;BME280;66135;0.000;0.000;2023-02-02T12:24:43;102316.25;;;16.91;58.92
77161;BME280;66135;0.000;0.000;2023-02-02T12:30:25;102304.94;;;16.86;58.78
77161;BME280;66135;0.000;0.000;2023-02-02T12:33:12;102307.63;;;16.86;58.82
77161;BME280;66135;0.000;0.000;2023-02-02T12:36:00;102303.22;;;16.85;58.97
77161;BME280;66135;0.000;0.000;2023-02-02T12:39:06;102305.06;;;16.84;58.82
77161;BME280;66135;0.000;0.000;2023-02-02T12:46:54;102315.28;;;16.81;58.84
77161;BME280;66135;0.000;0.000;2023-02-02T12:49:30;102301.75;;;16.81;58.68
77161;BME280;66135;0.000;0.000;2023-02-02T13:02:37;102313.59;;;16.80;58.63
77161;BME280;66135;0.000;0.000;2023-02-02T13:07:55;102300.19;;;16.78;58.82
77161;BME280;66135;0.000;0.000;2023-02-02T13:10:45;102301.44;;;16.74;58.79
77161;BME280;66135;0.000;0.000;2023-02-02T13:13:19;102309.56;;;16.74;58.74
77161;BME280;66135;0.000;0.000;2023-02-02T13:15:51;102295.88;;;16.76;58.68
77161;BME280;66135;0.000;0.000;2023-02-02T13:18:28;102290.75;;;16.73;58.60
77161;BME280;66135;0.000;0.000;2023-02-02T13:21:01;102305.16;;;16.73;58.67
77161;BME280;66135;0.000;0.000;2023-02-02T13:23:33;102310.56;;;16.73;58.54
77161;BME280;66135;0.000;0.000;2023-02-02T13:26:05;102312.41;;;16.73;58.50
77161;BME280;66135;0.000;0.000;2023-02-02T13:31:13;102308.81;;;16.72;58.42
77161;BME280;66135;0.000;0.000;2023-02-02T13:33:41;102296.16;;;16.73;58.49
77161;BME280;66135;0.000;0.000;2023-02-02T13:36:17;102306.97;;;16.73;58.31
77161;BME280;66135;0.000;0.000;2023-02-02T13:38:43;102303.53;;;16.71;58.52
77161;BME280;66135;0.000;0.000;2023-02-02T13:41:11;102305.16;;;16.73;58.44
77161;BME280;66135;0.000;0.000;2023-02-02T13:44:20;102307.72;;;16.75;58.33
77161;BME280;66135;0.000;0.000;2023-02-02T13:49:13;102302.53;;;16.72;58.45
77161;BME280;66135;0.000;0.000;2023-02-02T13:51:44;102311.53;;;16.72;58.42
77161;BME280;66135;0.000;0.000;2023-02-02T14:02:34;102305.25;;;16.72;58.54
77161;BME280;66135;0.000;0.000;2023-02-02T14:05:05;102290.88;;;16.71;58.52
77161;BME280;66135;0.000;0.000;2023-02-02T14:07:42;102289.16;;;16.70;58.66
77161;BME280;66135;0.000;0.000;2023-02-02T14:10:29;102293.44;;;16.73;58.55
77161;BME280;66135;0.000;0.000;2023-02-02T14:16:03;102298.00;;;16.72;58.55
77161;BME280;66135;0.000;0.000;2023-02-02T14:23:56;102308.81;;;16.72;58.52
77161;BME280;66135;0.000;0.000;2023-02-02T14:26:58;102310.66;;;16.72;58.51
77161;BME280;66135;0.000;0.000;2023-02-02T14:34:35;102336.88;;;16.71;58.68
77161;BME280;66135;0.000;0.000;2023-02-02T14:45:33;102334.31;;;16.70;58.56
77161;BME280;66135;0.000;0.000;2023-02-02T14:58:33;102343.88;;;16.74;58.48
77161;BME280;66135;0.000;0.000;2023-02-02T15:06:28;102351.84;;;16.75;58.58
77161;BME280;66135;0.000;0.000;2023-02-02T15:20:03;102354.25;;;16.89;58.73
77161;BME280;66135;0.000;0.000;2023-02-02T15:22:35;102354.97;;;16.92;58.71
77161;BME280;66135;0.000;0.000;2023-02-02T15:25:14;102354.00;;;16.93;58.70
77161;BME280;66135;0.000;0.000;2023-02-02T15:27:48;102358.41;;;16.94;59.04
77161;BME280;66135;0.000;0.000;2023-02-02T15:30:15;102354.19;;;17.01;59.86
77161;BME280;66135;0.000;0.000;2023-02-02T15:32:42;102353.09;;;17.03;60.91
77161;BME280;66135;0.000;0.000;2023-02-02T15:35:10;102353.69;;;17.07;60.80